createdAt,value
2022-08-12T00:00:54.631Z,14.70
2022-08-12T00:05:16.138Z,14.60
2022-08-12T00:09:37.283Z,14.50
2022-08-12T00:13:58.227Z,14.50
2022-08-12T00:18:19.783Z,14.40
2022-08-12T00:22:42.499Z,14.40
2022-08-12T00:27:05.999Z,14.30
2022-08-12T00:31:26.602Z,14.30
2022-08-12T00:35:47.526Z,14.30
2022-08-12T00:40:11.278Z,14.30
2022-08-12T00:44:16.453Z,14.30
2022-08-12T00:48:19.302Z,14.30
2022-08-12T00:52:22.895Z,14.30
2022-08-12T00:56:29.345Z,14.20
2022-08-12T01:00:32.342Z,14.20
2022-08-12T01:04:55.723Z,14.20
2022-08-12T01:09:17.346Z,14.20
2022-08-12T01:13:20.575Z,14.20
2022-08-12T01:17:23.102Z,14.10
2022-08-12T01:21:28.003Z,14.10
2022-08-12T01:25:55.487Z,14.10
2022-08-12T01:30:01.917Z,14.10
2022-08-12T01:34:36.443Z,14.10
2022-08-12T01:38:35.790Z,14.10
2022-08-12T01:42:50.680Z,14.00
2022-08-12T01:46:57.464Z,14.00
2022-08-12T01:51:09.944Z,14.00
2022-08-12T01:55:15.925Z,14.00
2022-08-12T01:59:50.067Z,13.90
2022-08-12T02:04:22.591Z,13.70
2022-08-12T02:09:05.731Z,13.60
2022-08-12T02:13:14.365Z,13.60
2022-08-12T02:17:55.771Z,13.50
2022-08-12T02:22:09.318Z,13.50
2022-08-12T02:26:16.046Z,13.40
2022-08-12T02:30:21.055Z,13.40
2022-08-12T02:34:24.509Z,13.30
2022-08-12T02:38:28.054Z,13.30
2022-08-12T02:42:34.944Z,13.30
2022-08-12T02:46:39.451Z,13.20
2022-08-12T02:50:47.072Z,13.20
2022-08-12T02:54:53.961Z,13.10
2022-08-12T02:58:56.319Z,13.10
2022-08-12T03:03:04.738Z,13.10
2022-08-12T03:07:13.864Z,13.00
2022-08-12T03:11:25.693Z,12.90
2022-08-12T03:15:28.191Z,12.90
2022-08-12T03:19:31.440Z,12.80
2022-08-12T03:23:33.577Z,12.80
2022-08-12T03:27:40.627Z,12.70
2022-08-12T03:31:44.253Z,12.70
2022-08-12T03:35:48.340Z,12.80
2022-08-12T03:39:50.359Z,12.80
2022-08-12T03:44:17.475Z,12.80
2022-08-12T03:48:38.854Z,12.90
2022-08-12T03:52:59.797Z,12.80
2022-08-12T03:57:21.086Z,12.90
2022-08-12T04:01:26.054Z,13.10
2022-08-12T04:05:54.590Z,14.10
2022-08-12T04:09:54.244Z,15.80
2022-08-12T04:14:08.873Z,17.50
2022-08-12T04:18:13.665Z,19.10
2022-08-12T04:22:16.577Z,20.70
2022-08-12T04:26:18.551Z,22.20
2022-08-12T04:30:32.138Z,23.60
2022-08-12T04:34:38.699Z,25.10
2022-08-12T04:38:41.539Z,26.30
2022-08-12T04:42:45.803Z,27.30
2022-08-12T04:46:47.942Z,28.30
2022-08-12T04:50:50.515Z,29.00
2022-08-12T04:54:53.279Z,29.30
2022-08-12T04:58:57.010Z,29.40
2022-08-12T05:02:59.159Z,30.00
2022-08-12T05:07:03.199Z,30.00
2022-08-12T05:11:06.372Z,28.90
2022-08-12T05:15:21.253Z,30.00
2022-08-12T05:19:30.664Z,31.10
2022-08-12T05:23:32.907Z,32.10
2022-08-12T05:27:35.104Z,32.40
2022-08-12T05:31:47.291Z,33.30
2022-08-12T05:35:50.618Z,34.50
2022-08-12T05:39:52.976Z,35.30
2022-08-12T05:44:02.744Z,36.30
2022-08-12T05:48:05.141Z,37.60
2022-08-12T05:52:09.112Z,38.30
2022-08-12T05:56:34.516Z,37.50
2022-08-12T06:00:37.279Z,34.10
2022-08-12T06:04:41.224Z,31.00
2022-08-12T06:08:46.731Z,28.90
2022-08-12T06:12:49.581Z,27.50
2022-08-12T06:16:52.269Z,26.30
2022-08-12T06:21:02.082Z,25.10
2022-08-12T06:25:05.668Z,23.10
2022-08-12T06:29:07.868Z,21.60
2022-08-12T06:33:11.780Z,20.70
2022-08-12T06:37:25.355Z,20.00
2022-08-12T06:42:02.722Z,19.30
2022-08-12T06:46:09.522Z,18.80
2022-08-12T06:50:14.270Z,18.80
2022-08-12T06:54:29.829Z,18.20
2022-08-12T06:58:33.762Z,18.20
2022-08-12T07:02:37.219Z,18.40
2022-08-12T07:06:39.697Z,18.50
2022-08-12T07:11:10.763Z,18.40
2022-08-12T07:15:13.513Z,18.10
2022-08-12T07:19:16.625Z,18.50
2022-08-12T07:23:19.074Z,18.90
2022-08-12T07:27:21.151Z,18.80
2022-08-12T07:31:23.241Z,18.70
2022-08-12T07:35:25.340Z,18.50
2022-08-12T07:39:29.825Z,18.70
2022-08-12T07:43:34.421Z,18.60
2022-08-12T07:47:41.510Z,18.50
2022-08-12T07:51:44.390Z,18.40
2022-08-12T07:55:46.889Z,18.50
2022-08-12T07:59:52.806Z,18.40
2022-08-12T08:04:19.285Z,18.70
2022-08-12T08:08:25.627Z,18.60
2022-08-12T08:12:48.103Z,18.70
2022-08-12T08:16:50.286Z,18.70
2022-08-12T08:20:52.359Z,18.80
2022-08-12T08:24:58.744Z,19.00
2022-08-12T08:29:01.139Z,19.00
2022-08-12T08:33:03.207Z,19.00
2022-08-12T08:37:27.763Z,19.30
2022-08-12T08:42:15.752Z,19.40
2022-08-12T08:46:16.651Z,19.50
2022-08-12T08:50:19.022Z,19.50
2022-08-12T08:54:21.134Z,19.70
2022-08-12T08:58:23.304Z,19.80
2022-08-12T09:02:25.593Z,20.10
2022-08-12T09:06:37.464Z,19.80
2022-08-12T09:15:16.808Z,20.30
2022-08-12T09:24:00.077Z,19.70
2022-08-12T09:28:10.968Z,19.60
2022-08-12T09:32:56.062Z,19.60
2022-08-12T09:36:57.838Z,19.90
2022-08-12T09:42:33.453Z,20.40
2022-08-12T09:46:19.387Z,20.60
2022-08-12T09:49:58.741Z,20.60
2022-08-12T09:54:08.413Z,20.30
2022-08-12T09:58:57.854Z,20.40
2022-08-12T10:03:04.855Z,20.70
2022-08-12T10:07:21.172Z,20.70
2022-08-12T10:12:11.922Z,20.70
2022-08-12T10:16:22.579Z,21.00
2022-08-12T10:20:25.208Z,21.10
2022-08-12T10:24:27.666Z,21.30
2022-08-12T10:29:01.676Z,21.40
2022-08-12T10:33:19.008Z,21.70
2022-08-12T10:38:34.771Z,21.70
2022-08-12T10:42:07.313Z,21.70
2022-08-12T10:46:17.497Z,21.60
2022-08-12T10:50:37.279Z,21.70
2022-08-12T10:54:51.318Z,21.90
2022-08-12T10:58:55.921Z,21.80
2022-08-12T11:04:27.480Z,21.30
2022-08-12T11:08:33.637Z,21.50
2022-08-12T11:12:37.020Z,22.00
2022-08-12T11:16:22.129Z,22.30
2022-08-12T11:20:29.031Z,22.50
2022-08-12T11:24:33.794Z,22.40
2022-08-12T11:28:38.333Z,21.80
2022-08-12T11:32:40.831Z,21.90
2022-08-12T11:37:25.653Z,22.10
2022-08-12T11:41:31.651Z,22.20
2022-08-12T11:45:38.985Z,22.70
2022-08-12T11:49:41.426Z,22.80
2022-08-12T11:53:58.340Z,23.00
2022-08-12T11:58:44.032Z,23.10
2022-08-12T12:02:25.440Z,23.10
2022-08-12T12:06:28.389Z,23.20
2022-08-12T12:10:30.683Z,23.00
2022-08-12T12:14:38.049Z,23.20
2022-08-12T12:18:42.778Z,23.70
2022-08-12T12:22:45.256Z,23.90
2022-08-12T12:26:47.650Z,23.90
2022-08-12T12:31:04.848Z,23.40
2022-08-12T12:36:06.078Z,23.30
2022-08-12T12:39:55.219Z,22.90
2022-08-12T12:44:03.946Z,23.10
2022-08-12T12:48:11.907Z,23.50
2022-08-12T12:52:19.393Z,23.70
2022-08-12T12:56:34.216Z,23.40
2022-08-12T13:00:41.323Z,23.80
2022-08-12T13:04:53.980Z,23.90
2022-08-12T13:08:57.077Z,24.20
2022-08-12T13:14:09.878Z,23.90
2022-08-12T13:18:01.901Z,24.30
2022-08-12T13:22:14.207Z,24.60
2022-08-12T13:26:20.328Z,24.70
2022-08-12T13:30:24.894Z,24.20
2022-08-12T13:34:33.696Z,24.50
2022-08-12T13:38:42.054Z,25.30
2022-08-12T13:42:48.579Z,25.50
2022-08-12T13:46:58.517Z,25.30
2022-08-12T13:51:04.331Z,24.70
2022-08-12T13:55:06.954Z,24.40
2022-08-12T13:59:09.194Z,23.80
2022-08-12T14:03:13.547Z,23.90
2022-08-12T14:07:15.650Z,24.10
2022-08-12T14:11:25.502Z,23.80
2022-08-12T14:15:37.349Z,23.90
2022-08-12T14:20:00.876Z,23.70
2022-08-12T14:24:11.159Z,24.00
2022-08-12T14:28:17.215Z,24.50
2022-08-12T14:32:20.250Z,24.80
2022-08-12T14:36:26.765Z,24.70
2022-08-12T14:40:29.567Z,24.90
2022-08-12T14:44:59.016Z,24.80
2022-08-12T14:48:54.975Z,24.70
2022-08-12T14:55:24.566Z,24.50
2022-08-12T14:58:00.548Z,24.30
2022-08-12T15:01:42.688Z,24.40
2022-08-12T15:06:04.809Z,24.10
2022-08-12T15:10:08.324Z,23.40
2022-08-12T15:14:11.432Z,22.90
2022-08-12T15:18:21.395Z,22.70
2022-08-12T15:22:35.788Z,22.60
2022-08-12T15:26:42.608Z,22.60
2022-08-12T15:30:44.897Z,22.60
2022-08-12T15:34:49.726Z,22.80
2022-08-12T15:38:55.547Z,22.70
2022-08-12T15:43:03.979Z,22.80
2022-08-12T15:47:10.774Z,23.00
2022-08-12T15:51:12.888Z,23.00
2022-08-12T15:55:21.596Z,22.90
2022-08-12T15:59:51.986Z,22.70
2022-08-12T16:04:00.434Z,22.40
2022-08-12T16:08:03.608Z,22.30
2022-08-12T16:12:06.402Z,22.30
2022-08-12T16:16:23.644Z,22.10
2022-08-12T16:20:33.150Z,22.00
2022-08-12T16:24:42.221Z,22.10
2022-08-12T16:28:47.150Z,22.10
2022-08-12T16:32:52.982Z,22.10
2022-08-12T16:37:03.219Z,22.20
2022-08-12T16:41:06.372Z,22.30
2022-08-12T16:45:13.646Z,22.40
2022-08-12T16:49:16.903Z,22.30
2022-08-12T16:53:30.528Z,22.40
2022-08-12T16:57:35.660Z,22.30
2022-08-12T17:01:38.351Z,22.30
2022-08-12T17:05:45.579Z,22.10
2022-08-12T17:09:50.029Z,21.90
2022-08-12T17:13:54.555Z,21.80
2022-08-12T17:18:43.943Z,21.70
2022-08-12T17:22:21.776Z,21.50
2022-08-12T17:26:31.111Z,21.40
2022-08-12T17:30:35.696Z,21.30
2022-08-12T17:34:57.010Z,21.20
2022-08-12T17:38:59.077Z,21.10
2022-08-12T17:43:57.054Z,21.00
2022-08-12T17:47:36.337Z,20.80
2022-08-12T17:51:50.557Z,20.70
2022-08-12T17:56:03.693Z,20.60
2022-08-12T18:00:14.003Z,20.40
2022-08-12T18:04:23.211Z,20.30
2022-08-12T18:08:53.535Z,20.10
2022-08-12T18:13:02.395Z,19.90
2022-08-12T18:17:08.882Z,19.70
2022-08-12T18:21:14.977Z,19.60
2022-08-12T18:26:15.152Z,19.40
2022-08-12T18:30:04.822Z,19.30
2022-08-12T18:34:07.785Z,19.20
2022-08-12T18:38:11.691Z,19.00
2022-08-12T18:42:24.458Z,18.90
2022-08-12T18:46:40.941Z,18.80
2022-08-12T18:51:01.323Z,18.70
2022-08-12T18:55:08.173Z,18.60
2022-08-12T18:59:10.883Z,18.60
2022-08-12T19:03:38.885Z,18.50
2022-08-12T19:08:01.252Z,18.40
2022-08-12T19:12:24.184Z,18.30
2022-08-12T19:16:37.931Z,18.30
2022-08-12T19:20:40.397Z,18.30
2022-08-12T19:25:00.999Z,18.30
2022-08-12T19:29:05.780Z,18.20
2022-08-12T19:33:11.638Z,18.20
2022-08-12T19:38:02.535Z,18.10
2022-08-12T19:42:00.513Z,18.00
2022-08-12T19:46:04.544Z,17.90
2022-08-12T19:50:11.308Z,17.90
2022-08-12T19:54:15.214Z,17.90
2022-08-12T19:58:18.093Z,17.90
2022-08-12T20:02:21.511Z,17.90
2022-08-12T20:06:51.612Z,17.80
2022-08-12T20:12:12.406Z,17.80
2022-08-12T20:15:26.385Z,17.80
2022-08-12T20:20:04.090Z,17.70
2022-08-12T20:24:12.002Z,17.70
2022-08-12T20:28:18.734Z,17.80
2022-08-12T20:32:29.321Z,17.70
2022-08-12T20:36:40.736Z,17.80
2022-08-12T20:40:47.933Z,17.70
2022-08-12T20:44:52.621Z,17.70
2022-08-12T20:48:57.606Z,17.70
2022-08-12T20:52:59.879Z,17.70
2022-08-12T20:57:08.697Z,17.70
2022-08-12T21:01:18.562Z,17.60
2022-08-12T21:06:12.281Z,17.60
2022-08-12T21:10:06.099Z,17.50
2022-08-12T21:14:18.109Z,17.40
2022-08-12T21:18:41.057Z,17.50
2022-08-12T21:22:43.436Z,17.50
2022-08-12T21:26:53.472Z,17.50
2022-08-12T21:32:34.794Z,17.50
2022-08-12T21:35:19.498Z,17.50
2022-08-12T21:39:30.496Z,17.50
2022-08-12T21:43:38.850Z,17.40
2022-08-12T21:47:47.204Z,17.30
2022-08-12T21:51:56.607Z,17.30
2022-08-12T21:56:00.083Z,17.20
2022-08-12T22:00:02.426Z,17.20
2022-08-12T22:04:25.722Z,17.20
2022-08-12T22:08:29.819Z,17.10
2022-08-12T22:12:32.584Z,17.10
2022-08-12T22:16:35.760Z,17.10
2022-08-12T22:20:49.660Z,17.00
2022-08-12T22:24:51.874Z,17.00
2022-08-12T22:29:19.395Z,17.00
2022-08-12T22:33:21.410Z,16.90
2022-08-12T22:37:26.807Z,16.90
2022-08-12T22:41:48.730Z,16.80
2022-08-12T22:46:18.501Z,16.80
2022-08-12T22:50:27.131Z,16.80
2022-08-12T22:54:36.968Z,16.80
2022-08-12T22:58:41.597Z,16.70
2022-08-12T23:02:44.108Z,16.60
2022-08-12T23:06:54.423Z,16.50
2022-08-12T23:10:56.578Z,16.50
2022-08-12T23:15:02.402Z,16.50
2022-08-12T23:19:17.914Z,16.40
2022-08-12T23:23:25.645Z,16.40
2022-08-12T23:27:52.159Z,16.30
2022-08-12T23:32:02.616Z,16.20
2022-08-12T23:36:06.724Z,16.10
2022-08-12T23:40:17.915Z,16.10
2022-08-12T23:44:25.354Z,16.00
2022-08-12T23:48:34.638Z,16.00
2022-08-12T23:52:37.004Z,15.90
2022-08-12T23:56:43.663Z,15.90
